sensor_id;sensor_type;location;lat;lon;timestamp;P1;durP1;ratioP1;P2;durP2;ratioP2
3066;SDS011;1544;48.834;9.194;2022-11-04T00:00:22;0.60;;;0.50;;
3066;SDS011;1544;48.834;9.194;2022-11-04T00:03:03;0.70;;;0.70;;
3066;SDS011;1544;48.834;9.194;2022-11-04T00:05:38;0.60;;;0.60;;
3066;SDS011;1544;48.834;9.194;2022-11-04T00:08:13;0.73;;;0.70;;
3066;SDS011;1544;48.834;9.194;2022-11-04T00:10:58;0.60;;;0.50;;
3066;SDS011;1544;48.834;9.194;2022-11-04T00:13:52;0.60;;;0.60;;
3066;SDS011;1544;48.834;9.194;2022-11-04T00:16:27;0.60;;;0.60;;
3066;SDS011;1544;48.834;9.194;2022-11-04T00:19:20;0.60;;;0.60;;
3066;SDS011;1544;48.834;9.194;2022-11-04T00:21:56;1.00;;;0.90;;
3066;SDS011;1544;48.834;9.194;2022-11-04T00:24:49;0.60;;;0.53;;
3066;SDS011;1544;48.834;9.194;2022-11-04T00:27:33;0.80;;;0.50;;
3066;SDS011;1544;48.834;9.194;2022-11-04T00:30:27;0.50;;;0.50;;
3066;SDS011;1544;48.834;9.194;2022-11-04T00:33:02;0.60;;;0.60;;
3066;SDS011;1544;48.834;9.194;2022-11-04T00:35:55;0.70;;;0.70;;
3066;SDS011;1544;48.834;9.194;2022-11-04T00:38:31;0.60;;;0.60;;
3066;SDS011;1544;48.834;9.194;2022-11-04T00:41:05;0.60;;;0.60;;
3066;SDS011;1544;48.834;9.194;2022-11-04T00:44:01;0.60;;;0.60;;
3066;SDS011;1544;48.834;9.194;2022-11-04T00:46:38;0.67;;;0.60;;
3066;SDS011;1544;48.834;9.194;2022-11-04T00:49:13;0.60;;;0.60;;
3066;SDS011;1544;48.834;9.194;2022-11-04T00:51:48;0.70;;;0.70;;
3066;SDS011;1544;48.834;9.194;2022-11-04T00:54:22;0.77;;;0.70;;
3066;SDS011;1544;48.834;9.194;2022-11-04T00:56:57;1.03;;;0.60;;
3066;SDS011;1544;48.834;9.194;2022-11-04T00:59:32;0.80;;;0.70;;
3066;SDS011;1544;48.834;9.194;2022-11-04T01:02:08;0.60;;;0.60;;
3066;SDS011;1544;48.834;9.194;2022-11-04T01:04:45;1.03;;;0.70;;
3066;SDS011;1544;48.834;9.194;2022-11-04T01:07:20;0.80;;;0.77;;
3066;SDS011;1544;48.834;9.194;2022-11-04T01:09:55;0.60;;;0.60;;
3066;SDS011;1544;48.834;9.194;2022-11-04T01:12:30;0.70;;;0.70;;
3066;SDS011;1544;48.834;9.194;2022-11-04T01:15:06;1.10;;;0.60;;
3066;SDS011;1544;48.834;9.194;2022-11-04T01:17:41;0.50;;;0.47;;
3066;SDS011;1544;48.834;9.194;2022-11-04T01:20:16;0.60;;;0.60;;
3066;SDS011;1544;48.834;9.194;2022-11-04T01:22:51;1.00;;;0.80;;
3066;SDS011;1544;48.834;9.194;2022-11-04T01:25:26;1.10;;;1.00;;
3066;SDS011;1544;48.834;9.194;2022-11-04T01:28:01;0.80;;;0.70;;
3066;SDS011;1544;48.834;9.194;2022-11-04T01:30:37;1.07;;;0.83;;
3066;SDS011;1544;48.834;9.194;2022-11-04T01:33:12;0.60;;;0.60;;
3066;SDS011;1544;48.834;9.194;2022-11-04T01:35:47;0.60;;;0.50;;
3066;SDS011;1544;48.834;9.194;2022-11-04T01:38:22;1.17;;;0.97;;
3066;SDS011;1544;48.834;9.194;2022-11-04T01:40:57;0.60;;;0.60;;
3066;SDS011;1544;48.834;9.194;2022-11-04T01:49:17;0.80;;;0.70;;
3066;SDS011;1544;48.834;9.194;2022-11-04T01:52:06;0.60;;;0.60;;
3066;SDS011;1544;48.834;9.194;2022-11-04T01:54:49;0.50;;;0.50;;
3066;SDS011;1544;48.834;9.194;2022-11-04T01:57:32;0.53;;;0.53;;
3066;SDS011;1544;48.834;9.194;2022-11-04T02:00:12;0.63;;;0.63;;
3066;SDS011;1544;48.834;9.194;2022-11-04T02:02:58;0.60;;;0.50;;
3066;SDS011;1544;48.834;9.194;2022-11-04T02:05:51;0.60;;;0.60;;
3066;SDS011;1544;48.834;9.194;2022-11-04T02:08:27;0.60;;;0.60;;
3066;SDS011;1544;48.834;9.194;2022-11-04T02:11:03;0.57;;;0.57;;
3066;SDS011;1544;48.834;9.194;2022-11-04T02:13:37;0.80;;;0.60;;
3066;SDS011;1544;48.834;9.194;2022-11-04T02:19:01;2.00;;;0.97;;
3066;SDS011;1544;48.834;9.194;2022-11-04T02:22:31;2.83;;;0.60;;
3066;SDS011;1544;48.834;9.194;2022-11-04T02:28:22;0.43;;;0.43;;
3066;SDS011;1544;48.834;9.194;2022-11-04T02:31:29;0.93;;;0.50;;
3066;SDS011;1544;48.834;9.194;2022-11-04T02:39:55;0.50;;;0.50;;
3066;SDS011;1544;48.834;9.194;2022-11-04T02:42:50;0.60;;;0.50;;
3066;SDS011;1544;48.834;9.194;2022-11-04T02:46:02;0.50;;;0.50;;
3066;SDS011;1544;48.834;9.194;2022-11-04T02:48:59;1.03;;;0.60;;
3066;SDS011;1544;48.834;9.194;2022-11-04T02:51:46;1.57;;;0.53;;
3066;SDS011;1544;48.834;9.194;2022-11-04T02:54:49;1.33;;;0.60;;
3066;SDS011;1544;48.834;9.194;2022-11-04T02:57:33;1.00;;;0.60;;
3066;SDS011;1544;48.834;9.194;2022-11-04T03:00:11;0.50;;;0.50;;
3066;SDS011;1544;48.834;9.194;2022-11-04T03:02:56;1.20;;;0.60;;
3066;SDS011;1544;48.834;9.194;2022-11-04T03:05:36;0.50;;;0.50;;
3066;SDS011;1544;48.834;9.194;2022-11-04T03:08:23;1.70;;;0.60;;
3066;SDS011;1544;48.834;9.194;2022-11-04T03:11:13;0.87;;;0.40;;
3066;SDS011;1544;48.834;9.194;2022-11-04T03:13:58;3.30;;;0.60;;
3066;SDS011;1544;48.834;9.194;2022-11-04T03:16:43;0.80;;;0.60;;
3066;SDS011;1544;48.834;9.194;2022-11-04T03:19:29;0.60;;;0.60;;
3066;SDS011;1544;48.834;9.194;2022-11-04T03:22:16;2.50;;;0.70;;
3066;SDS011;1544;48.834;9.194;2022-11-04T03:24:54;1.57;;;0.50;;
3066;SDS011;1544;48.834;9.194;2022-11-04T03:27:44;0.60;;;0.50;;
3066;SDS011;1544;48.834;9.194;2022-11-04T03:30:21;1.00;;;0.47;;
3066;SDS011;1544;48.834;9.194;2022-11-04T03:35:59;0.60;;;0.47;;
3066;SDS011;1544;48.834;9.194;2022-11-04T03:38:36;1.20;;;0.50;;
3066;SDS011;1544;48.834;9.194;2022-11-04T03:41:24;1.07;;;0.60;;
3066;SDS011;1544;48.834;9.194;2022-11-04T03:44:07;0.70;;;0.50;;
3066;SDS011;1544;48.834;9.194;2022-11-04T03:46:42;0.73;;;0.57;;
3066;SDS011;1544;48.834;9.194;2022-11-04T03:49:17;0.73;;;0.60;;
3066;SDS011;1544;48.834;9.194;2022-11-04T03:51:56;2.30;;;0.60;;
3066;SDS011;1544;48.834;9.194;2022-11-04T03:54:31;0.60;;;0.60;;
3066;SDS011;1544;48.834;9.194;2022-11-04T03:57:22;1.23;;;0.50;;
3066;SDS011;1544;48.834;9.194;2022-11-04T04:00:16;0.57;;;0.50;;
3066;SDS011;1544;48.834;9.194;2022-11-04T04:06:02;0.80;;;0.60;;
3066;SDS011;1544;48.834;9.194;2022-11-04T04:09:10;0.50;;;0.50;;
3066;SDS011;1544;48.834;9.194;2022-11-04T04:12:10;0.57;;;0.50;;
3066;SDS011;1544;48.834;9.194;2022-11-04T04:15:11;0.63;;;0.50;;
3066;SDS011;1544;48.834;9.194;2022-11-04T04:18:00;0.70;;;0.60;;
3066;SDS011;1544;48.834;9.194;2022-11-04T04:20:40;1.17;;;0.60;;
3066;SDS011;1544;48.834;9.194;2022-11-04T04:23:22;0.90;;;0.70;;
3066;SDS011;1544;48.834;9.194;2022-11-04T04:26:20;1.40;;;0.80;;
3066;SDS011;1544;48.834;9.194;2022-11-04T04:29:15;0.80;;;0.70;;
3066;SDS011;1544;48.834;9.194;2022-11-04T04:31:52;1.17;;;0.47;;
3066;SDS011;1544;48.834;9.194;2022-11-04T04:34:31;0.97;;;0.70;;
3066;SDS011;1544;48.834;9.194;2022-11-04T04:37:08;1.90;;;0.63;;
3066;SDS011;1544;48.834;9.194;2022-11-04T04:39:58;0.87;;;0.80;;
3066;SDS011;1544;48.834;9.194;2022-11-04T04:42:58;1.57;;;0.80;;
3066;SDS011;1544;48.834;9.194;2022-11-04T04:45:52;1.13;;;0.70;;
3066;SDS011;1544;48.834;9.194;2022-11-04T04:48:28;1.13;;;0.60;;
3066;SDS011;1544;48.834;9.194;2022-11-04T04:51:03;0.60;;;0.60;;
3066;SDS011;1544;48.834;9.194;2022-11-04T04:53:39;0.60;;;0.50;;
3066;SDS011;1544;48.834;9.194;2022-11-04T04:56:13;0.67;;;0.50;;
3066;SDS011;1544;48.834;9.194;2022-11-04T04:58:48;0.60;;;0.50;;
3066;SDS011;1544;48.834;9.194;2022-11-04T05:01:24;0.90;;;0.60;;
3066;SDS011;1544;48.834;9.194;2022-11-04T05:03:59;0.63;;;0.60;;
3066;SDS011;1544;48.834;9.194;2022-11-04T05:06:34;2.00;;;0.60;;
3066;SDS011;1544;48.834;9.194;2022-11-04T05:09:09;0.40;;;0.40;;
3066;SDS011;1544;48.834;9.194;2022-11-04T05:11:44;0.60;;;0.60;;
3066;SDS011;1544;48.834;9.194;2022-11-04T05:14:19;0.60;;;0.50;;
3066;SDS011;1544;48.834;9.194;2022-11-04T05:16:54;0.93;;;0.70;;
3066;SDS011;1544;48.834;9.194;2022-11-04T05:19:29;0.90;;;0.67;;
3066;SDS011;1544;48.834;9.194;2022-11-04T05:22:04;0.73;;;0.73;;
3066;SDS011;1544;48.834;9.194;2022-11-04T05:24:39;1.10;;;0.73;;
3066;SDS011;1544;48.834;9.194;2022-11-04T05:27:14;0.80;;;0.70;;
3066;SDS011;1544;48.834;9.194;2022-11-04T05:29:49;1.47;;;0.90;;
3066;SDS011;1544;48.834;9.194;2022-11-04T05:32:24;0.80;;;0.80;;
3066;SDS011;1544;48.834;9.194;2022-11-04T05:34:59;1.20;;;1.10;;
3066;SDS011;1544;48.834;9.194;2022-11-04T05:37:34;0.93;;;0.80;;
3066;SDS011;1544;48.834;9.194;2022-11-04T05:40:10;1.53;;;0.80;;
3066;SDS011;1544;48.834;9.194;2022-11-04T05:42:53;0.77;;;0.70;;
3066;SDS011;1544;48.834;9.194;2022-11-04T05:45:32;0.90;;;0.80;;
3066;SDS011;1544;48.834;9.194;2022-11-04T05:48:07;0.70;;;0.60;;
3066;SDS011;1544;48.834;9.194;2022-11-04T05:50:42;0.80;;;0.80;;
3066;SDS011;1544;48.834;9.194;2022-11-04T05:53:17;0.70;;;0.70;;
3066;SDS011;1544;48.834;9.194;2022-11-04T05:55:52;0.87;;;0.60;;
3066;SDS011;1544;48.834;9.194;2022-11-04T05:58:27;0.70;;;0.70;;
3066;SDS011;1544;48.834;9.194;2022-11-04T06:03:57;1.40;;;0.70;;
3066;SDS011;1544;48.834;9.194;2022-11-04T06:06:34;0.80;;;0.80;;
3066;SDS011;1544;48.834;9.194;2022-11-04T06:09:10;1.43;;;0.87;;
3066;SDS011;1544;48.834;9.194;2022-11-04T06:11:45;2.03;;;1.60;;
3066;SDS011;1544;48.834;9.194;2022-11-04T06:14:20;2.73;;;1.80;;
3066;SDS011;1544;48.834;9.194;2022-11-04T06:16:55;3.17;;;2.03;;
3066;SDS011;1544;48.834;9.194;2022-11-04T06:19:30;2.77;;;1.50;;
3066;SDS011;1544;48.834;9.194;2022-11-04T06:22:05;1.10;;;1.00;;
3066;SDS011;1544;48.834;9.194;2022-11-04T06:24:40;1.20;;;1.10;;
3066;SDS011;1544;48.834;9.194;2022-11-04T06:27:15;1.50;;;1.20;;
3066;SDS011;1544;48.834;9.194;2022-11-04T06:29:51;0.80;;;0.80;;
3066;SDS011;1544;48.834;9.194;2022-11-04T06:32:27;1.30;;;1.20;;
3066;SDS011;1544;48.834;9.194;2022-11-04T06:35:02;1.00;;;0.90;;
3066;SDS011;1544;48.834;9.194;2022-11-04T06:37:37;1.07;;;0.97;;
3066;SDS011;1544;48.834;9.194;2022-11-04T06:40:16;1.40;;;0.90;;
3066;SDS011;1544;48.834;9.194;2022-11-04T06:42:50;1.20;;;1.10;;
3066;SDS011;1544;48.834;9.194;2022-11-04T06:45:25;1.33;;;0.90;;
3066;SDS011;1544;48.834;9.194;2022-11-04T06:48:00;0.97;;;0.87;;
3066;SDS011;1544;48.834;9.194;2022-11-04T06:50:35;1.63;;;0.90;;
3066;SDS011;1544;48.834;9.194;2022-11-04T06:53:10;0.70;;;0.70;;
3066;SDS011;1544;48.834;9.194;2022-11-04T06:55:45;2.00;;;1.90;;
3066;SDS011;1544;48.834;9.194;2022-11-04T06:58:20;1.73;;;1.00;;
3066;SDS011;1544;48.834;9.194;2022-11-04T07:00:55;1.10;;;1.00;;
3066;SDS011;1544;48.834;9.194;2022-11-04T07:03:30;1.73;;;1.10;;
3066;SDS011;1544;48.834;9.194;2022-11-04T07:06:06;2.17;;;1.50;;
3066;SDS011;1544;48.834;9.194;2022-11-04T07:08:42;2.20;;;1.10;;
3066;SDS011;1544;48.834;9.194;2022-11-04T07:11:19;1.67;;;1.27;;
3066;SDS011;1544;48.834;9.194;2022-11-04T07:13:55;1.00;;;0.90;;
3066;SDS011;1544;48.834;9.194;2022-11-04T07:16:30;1.53;;;1.07;;
3066;SDS011;1544;48.834;9.194;2022-11-04T07:19:05;1.40;;;0.90;;
3066;SDS011;1544;48.834;9.194;2022-11-04T07:21:40;3.23;;;1.20;;
3066;SDS011;1544;48.834;9.194;2022-11-04T07:24:15;0.97;;;0.80;;
3066;SDS011;1544;48.834;9.194;2022-11-04T07:26:52;1.10;;;1.00;;
3066;SDS011;1544;48.834;9.194;2022-11-04T07:29:29;1.30;;;0.93;;
3066;SDS011;1544;48.834;9.194;2022-11-04T07:32:04;1.60;;;0.93;;
3066;SDS011;1544;48.834;9.194;2022-11-04T07:34:39;1.27;;;0.80;;
3066;SDS011;1544;48.834;9.194;2022-11-04T07:37:14;1.23;;;1.00;;
3066;SDS011;1544;48.834;9.194;2022-11-04T07:39:49;0.87;;;0.87;;
3066;SDS011;1544;48.834;9.194;2022-11-04T07:42:24;1.20;;;0.90;;
3066;SDS011;1544;48.834;9.194;2022-11-04T07:45:02;1.70;;;1.33;;
3066;SDS011;1544;48.834;9.194;2022-11-04T07:47:37;1.80;;;0.80;;
3066;SDS011;1544;48.834;9.194;2022-11-04T07:50:12;0.80;;;0.80;;
3066;SDS011;1544;48.834;9.194;2022-11-04T07:52:47;1.20;;;0.80;;
3066;SDS011;1544;48.834;9.194;2022-11-04T07:55:24;4.20;;;1.00;;
3066;SDS011;1544;48.834;9.194;2022-11-04T07:57:59;0.90;;;0.70;;
3066;SDS011;1544;48.834;9.194;2022-11-04T08:00:36;1.13;;;0.70;;
3066;SDS011;1544;48.834;9.194;2022-11-04T08:03:11;0.97;;;0.70;;
3066;SDS011;1544;48.834;9.194;2022-11-04T08:05:46;0.70;;;0.70;;
3066;SDS011;1544;48.834;9.194;2022-11-04T08:08:31;0.60;;;0.60;;
3066;SDS011;1544;48.834;9.194;2022-11-04T08:11:07;0.93;;;0.80;;
3066;SDS011;1544;48.834;9.194;2022-11-04T08:13:51;0.57;;;0.57;;
3066;SDS011;1544;48.834;9.194;2022-11-04T08:16:26;0.87;;;0.80;;
3066;SDS011;1544;48.834;9.194;2022-11-04T08:19:08;0.80;;;0.70;;
3066;SDS011;1544;48.834;9.194;2022-11-04T08:21:44;2.47;;;0.90;;
3066;SDS011;1544;48.834;9.194;2022-11-04T08:24:20;2.73;;;0.63;;
3066;SDS011;1544;48.834;9.194;2022-11-04T08:26:56;0.80;;;0.70;;
3066;SDS011;1544;48.834;9.194;2022-11-04T08:29:32;1.47;;;0.80;;
3066;SDS011;1544;48.834;9.194;2022-11-04T08:32:07;0.80;;;0.70;;
3066;SDS011;1544;48.834;9.194;2022-11-04T08:34:43;0.80;;;0.80;;
3066;SDS011;1544;48.834;9.194;2022-11-04T08:37:18;0.70;;;0.70;;
3066;SDS011;1544;48.834;9.194;2022-11-04T08:39:53;1.50;;;0.83;;
3066;SDS011;1544;48.834;9.194;2022-11-04T08:42:28;1.20;;;0.90;;
3066;SDS011;1544;48.834;9.194;2022-11-04T08:45:04;0.83;;;0.83;;
3066;SDS011;1544;48.834;9.194;2022-11-04T08:47:39;1.93;;;1.13;;
3066;SDS011;1544;48.834;9.194;2022-11-04T08:50:14;2.23;;;1.30;;
3066;SDS011;1544;48.834;9.194;2022-11-04T08:52:49;2.43;;;1.27;;
3066;SDS011;1544;48.834;9.194;2022-11-04T08:55:24;1.47;;;1.37;;
3066;SDS011;1544;48.834;9.194;2022-11-04T08:58:02;2.97;;;1.63;;
3066;SDS011;1544;48.834;9.194;2022-11-04T09:00:37;2.17;;;1.27;;
3066;SDS011;1544;48.834;9.194;2022-11-04T09:03:12;1.77;;;1.40;;
3066;SDS011;1544;48.834;9.194;2022-11-04T09:05:48;1.40;;;1.30;;
3066;SDS011;1544;48.834;9.194;2022-11-04T09:08:23;2.50;;;1.57;;
3066;SDS011;1544;48.834;9.194;2022-11-04T09:10:58;1.40;;;1.23;;
3066;SDS011;1544;48.834;9.194;2022-11-04T09:13:32;1.67;;;1.10;;
3066;SDS011;1544;48.834;9.194;2022-11-04T09:16:13;1.50;;;0.80;;
3066;SDS011;1544;48.834;9.194;2022-11-04T09:18:48;1.57;;;1.00;;
3066;SDS011;1544;48.834;9.194;2022-11-04T09:21:24;1.97;;;0.80;;
3066;SDS011;1544;48.834;9.194;2022-11-04T09:24:00;1.60;;;0.80;;
3066;SDS011;1544;48.834;9.194;2022-11-04T09:26:36;0.73;;;0.73;;
3066;SDS011;1544;48.834;9.194;2022-11-04T09:29:10;1.27;;;0.70;;
3066;SDS011;1544;48.834;9.194;2022-11-04T09:31:45;0.87;;;0.80;;
3066;SDS011;1544;48.834;9.194;2022-11-04T09:34:23;1.50;;;0.80;;
3066;SDS011;1544;48.834;9.194;2022-11-04T09:36:58;0.93;;;0.70;;
3066;SDS011;1544;48.834;9.194;2022-11-04T09:39:33;1.57;;;1.10;;
3066;SDS011;1544;48.834;9.194;2022-11-04T09:45:10;0.80;;;0.70;;
3066;SDS011;1544;48.834;9.194;2022-11-04T09:47:57;1.00;;;0.70;;
3066;SDS011;1544;48.834;9.194;2022-11-04T09:50:47;1.50;;;0.80;;
3066;SDS011;1544;48.834;9.194;2022-11-04T09:53:46;1.30;;;1.10;;
3066;SDS011;1544;48.834;9.194;2022-11-04T09:56:33;1.10;;;1.00;;
3066;SDS011;1544;48.834;9.194;2022-11-04T09:59:13;4.10;;;1.13;;
3066;SDS011;1544;48.834;9.194;2022-11-04T10:11:34;1.90;;;1.30;;
3066;SDS011;1544;48.834;9.194;2022-11-04T10:20:47;1.87;;;1.07;;
3066;SDS011;1544;48.834;9.194;2022-11-04T10:23:45;2.83;;;1.20;;
3066;SDS011;1544;48.834;9.194;2022-11-04T10:26:45;2.70;;;1.00;;
3066;SDS011;1544;48.834;9.194;2022-11-04T10:29:41;4.00;;;0.90;;
3066;SDS011;1544;48.834;9.194;2022-11-04T10:32:33;1.07;;;0.80;;
3066;SDS011;1544;48.834;9.194;2022-11-04T10:35:37;1.37;;;1.00;;
3066;SDS011;1544;48.834;9.194;2022-11-04T10:38:21;1.40;;;0.90;;
3066;SDS011;1544;48.834;9.194;2022-11-04T10:47:17;1.20;;;0.80;;
3066;SDS011;1544;48.834;9.194;2022-11-04T10:53:14;1.37;;;0.80;;
3066;SDS011;1544;48.834;9.194;2022-11-04T10:55:58;0.80;;;0.80;;
3066;SDS011;1544;48.834;9.194;2022-11-04T10:58:50;1.63;;;0.90;;
3066;SDS011;1544;48.834;9.194;2022-11-04T11:01:31;2.43;;;0.90;;
3066;SDS011;1544;48.834;9.194;2022-11-04T11:04:10;1.40;;;0.60;;
3066;SDS011;1544;48.834;9.194;2022-11-04T11:07:18;1.10;;;0.70;;
3066;SDS011;1544;48.834;9.194;2022-11-04T11:09:56;1.07;;;0.60;;
3066;SDS011;1544;48.834;9.194;2022-11-04T11:12:34;1.63;;;0.60;;
3066;SDS011;1544;48.834;9.194;2022-11-04T11:15:35;0.70;;;0.60;;
3066;SDS011;1544;48.834;9.194;2022-11-04T11:18:13;1.43;;;0.70;;
3066;SDS011;1544;48.834;9.194;2022-11-04T11:21:02;2.43;;;0.80;;
3066;SDS011;1544;48.834;9.194;2022-11-04T11:23:40;0.73;;;0.50;;
3066;SDS011;1544;48.834;9.194;2022-11-04T11:26:29;1.33;;;0.70;;
3066;SDS011;1544;48.834;9.194;2022-11-04T11:29:05;0.77;;;0.70;;
3066;SDS011;1544;48.834;9.194;2022-11-04T11:31:44;0.70;;;0.70;;
3066;SDS011;1544;48.834;9.194;2022-11-04T11:34:21;2.20;;;0.70;;
3066;SDS011;1544;48.834;9.194;2022-11-04T11:37:12;1.90;;;0.90;;
3066;SDS011;1544;48.834;9.194;2022-11-04T11:39:56;1.10;;;0.70;;
3066;SDS011;1544;48.834;9.194;2022-11-04T11:42:31;1.27;;;0.70;;
3066;SDS011;1544;48.834;9.194;2022-11-04T11:45:13;2.43;;;0.73;;
3066;SDS011;1544;48.834;9.194;2022-11-04T11:47:49;1.23;;;0.90;;
3066;SDS011;1544;48.834;9.194;2022-11-04T11:50:28;3.10;;;0.80;;
3066;SDS011;1544;48.834;9.194;2022-11-04T11:53:17;1.37;;;0.80;;
3066;SDS011;1544;48.834;9.194;2022-11-04T12:05:49;0.60;;;0.60;;
3066;SDS011;1544;48.834;9.194;2022-11-04T12:08:58;0.97;;;0.87;;
3066;SDS011;1544;48.834;9.194;2022-11-04T12:12:04;1.93;;;0.70;;
3066;SDS011;1544;48.834;9.194;2022-11-04T12:26:52;1.60;;;0.73;;
3066;SDS011;1544;48.834;9.194;2022-11-04T12:32:57;1.60;;;0.60;;
3066;SDS011;1544;48.834;9.194;2022-11-04T12:48:11;0.93;;;0.67;;
3066;SDS011;1544;48.834;9.194;2022-11-04T12:54:31;1.17;;;0.60;;
3066;SDS011;1544;48.834;9.194;2022-11-04T13:01:27;2.40;;;0.80;;
3066;SDS011;1544;48.834;9.194;2022-11-04T13:04:17;1.03;;;0.73;;
3066;SDS011;1544;48.834;9.194;2022-11-04T13:07:42;2.13;;;0.90;;
3066;SDS011;1544;48.834;9.194;2022-11-04T13:10:08;1.73;;;0.50;;
3066;SDS011;1544;48.834;9.194;2022-11-04T13:13:31;1.53;;;0.67;;
3066;SDS011;1544;48.834;9.194;2022-11-04T13:16:09;0.80;;;0.70;;
3066;SDS011;1544;48.834;9.194;2022-11-04T13:18:45;1.33;;;1.00;;
3066;SDS011;1544;48.834;9.194;2022-11-04T13:21:23;2.40;;;1.33;;
3066;SDS011;1544;48.834;9.194;2022-11-04T13:24:05;1.10;;;0.90;;
3066;SDS011;1544;48.834;9.194;2022-11-04T13:26:59;1.37;;;1.00;;
3066;SDS011;1544;48.834;9.194;2022-11-04T13:29:39;0.97;;;0.70;;
3066;SDS011;1544;48.834;9.194;2022-11-04T13:32:26;0.80;;;0.60;;
3066;SDS011;1544;48.834;9.194;2022-11-04T13:37:58;2.50;;;0.70;;
3066;SDS011;1544;48.834;9.194;2022-11-04T13:44:01;2.03;;;0.90;;
3066;SDS011;1544;48.834;9.194;2022-11-04T13:47:10;1.27;;;1.00;;
3066;SDS011;1544;48.834;9.194;2022-11-04T13:49:55;1.00;;;0.80;;
3066;SDS011;1544;48.834;9.194;2022-11-04T13:52:31;0.87;;;0.63;;
3066;SDS011;1544;48.834;9.194;2022-11-04T13:55:15;1.00;;;0.63;;
3066;SDS011;1544;48.834;9.194;2022-11-04T14:00:38;1.77;;;1.17;;
3066;SDS011;1544;48.834;9.194;2022-11-04T14:08:39;1.40;;;0.73;;
3066;SDS011;1544;48.834;9.194;2022-11-04T14:20:30;0.60;;;0.60;;
3066;SDS011;1544;48.834;9.194;2022-11-04T14:23:13;0.80;;;0.63;;
3066;SDS011;1544;48.834;9.194;2022-11-04T14:26:00;0.90;;;0.60;;
3066;SDS011;1544;48.834;9.194;2022-11-04T14:28:45;0.80;;;0.50;;
3066;SDS011;1544;48.834;9.194;2022-11-04T14:31:34;0.93;;;0.50;;
3066;SDS011;1544;48.834;9.194;2022-11-04T14:34:24;0.63;;;0.47;;
3066;SDS011;1544;48.834;9.194;2022-11-04T14:39:59;1.77;;;0.63;;
3066;SDS011;1544;48.834;9.194;2022-11-04T14:45:27;1.33;;;0.70;;
3066;SDS011;1544;48.834;9.194;2022-11-04T14:48:14;2.07;;;0.77;;
3066;SDS011;1544;48.834;9.194;2022-11-04T14:50:53;2.30;;;0.80;;
3066;SDS011;1544;48.834;9.194;2022-11-04T14:53:33;0.67;;;0.60;;
3066;SDS011;1544;48.834;9.194;2022-11-04T14:56:15;1.70;;;0.60;;
3066;SDS011;1544;48.834;9.194;2022-11-04T14:58:58;2.13;;;0.80;;
3066;SDS011;1544;48.834;9.194;2022-11-04T15:01:39;2.20;;;0.73;;
3066;SDS011;1544;48.834;9.194;2022-11-04T15:04:26;0.80;;;0.80;;
3066;SDS011;1544;48.834;9.194;2022-11-04T15:07:04;2.53;;;0.97;;
3066;SDS011;1544;48.834;9.194;2022-11-04T15:09:39;1.43;;;0.80;;
3066;SDS011;1544;48.834;9.194;2022-11-04T15:12:21;0.70;;;0.60;;
3066;SDS011;1544;48.834;9.194;2022-11-04T15:15:28;0.80;;;0.70;;
3066;SDS011;1544;48.834;9.194;2022-11-04T15:18:08;2.30;;;0.80;;
3066;SDS011;1544;48.834;9.194;2022-11-04T15:20:49;1.00;;;0.90;;
3066;SDS011;1544;48.834;9.194;2022-11-04T15:23:41;0.80;;;0.70;;
3066;SDS011;1544;48.834;9.194;2022-11-04T15:29:07;1.70;;;0.70;;
3066;SDS011;1544;48.834;9.194;2022-11-04T15:34:38;0.70;;;0.70;;
3066;SDS011;1544;48.834;9.194;2022-11-04T15:37:13;1.27;;;0.80;;
3066;SDS011;1544;48.834;9.194;2022-11-04T15:39:51;1.57;;;1.47;;
3066;SDS011;1544;48.834;9.194;2022-11-04T15:42:29;1.70;;;1.10;;
3066;SDS011;1544;48.834;9.194;2022-11-04T15:51:12;1.93;;;1.23;;
3066;SDS011;1544;48.834;9.194;2022-11-04T15:54:05;1.93;;;0.80;;
3066;SDS011;1544;48.834;9.194;2022-11-04T15:56:53;2.80;;;1.47;;
3066;SDS011;1544;48.834;9.194;2022-11-04T15:59:32;1.13;;;0.97;;
3066;SDS011;1544;48.834;9.194;2022-11-04T16:02:16;1.10;;;1.00;;
3066;SDS011;1544;48.834;9.194;2022-11-04T16:07:50;1.10;;;1.00;;
3066;SDS011;1544;48.834;9.194;2022-11-04T16:10:33;0.90;;;0.77;;
3066;SDS011;1544;48.834;9.194;2022-11-04T16:15:48;1.20;;;0.80;;
3066;SDS011;1544;48.834;9.194;2022-11-04T16:18:43;1.87;;;1.30;;
3066;SDS011;1544;48.834;9.194;2022-11-04T16:21:31;0.90;;;0.90;;
3066;SDS011;1544;48.834;9.194;2022-11-04T16:24:22;1.00;;;1.00;;
3066;SDS011;1544;48.834;9.194;2022-11-04T16:27:01;3.63;;;1.40;;
3066;SDS011;1544;48.834;9.194;2022-11-04T16:29:37;1.37;;;1.27;;
3066;SDS011;1544;48.834;9.194;2022-11-04T16:32:28;1.30;;;1.20;;
3066;SDS011;1544;48.834;9.194;2022-11-04T16:35:16;3.93;;;1.40;;
3066;SDS011;1544;48.834;9.194;2022-11-04T16:37:55;2.27;;;1.30;;
3066;SDS011;1544;48.834;9.194;2022-11-04T16:40:33;1.20;;;1.10;;
3066;SDS011;1544;48.834;9.194;2022-11-04T16:43:09;1.50;;;1.10;;
3066;SDS011;1544;48.834;9.194;2022-11-04T16:45:48;1.90;;;1.17;;
3066;SDS011;1544;48.834;9.194;2022-11-04T16:48:27;1.40;;;1.30;;
3066;SDS011;1544;48.834;9.194;2022-11-04T16:51:02;2.50;;;1.20;;
3066;SDS011;1544;48.834;9.194;2022-11-04T16:53:37;2.10;;;1.60;;
3066;SDS011;1544;48.834;9.194;2022-11-04T16:56:12;3.00;;;1.50;;
3066;SDS011;1544;48.834;9.194;2022-11-04T16:58:49;2.07;;;1.83;;
3066;SDS011;1544;48.834;9.194;2022-11-04T17:01:25;3.40;;;2.00;;
3066;SDS011;1544;48.834;9.194;2022-11-04T17:04:00;3.33;;;1.60;;
3066;SDS011;1544;48.834;9.194;2022-11-04T17:06:37;1.60;;;1.50;;
3066;SDS011;1544;48.834;9.194;2022-11-04T17:09:16;2.70;;;2.27;;
3066;SDS011;1544;48.834;9.194;2022-11-04T17:11:55;2.30;;;2.10;;
3066;SDS011;1544;48.834;9.194;2022-11-04T17:14:30;3.03;;;2.73;;
3066;SDS011;1544;48.834;9.194;2022-11-04T17:17:06;3.10;;;2.80;;
3066;SDS011;1544;48.834;9.194;2022-11-04T17:19:41;2.97;;;2.70;;
3066;SDS011;1544;48.834;9.194;2022-11-04T17:22:16;2.67;;;2.47;;
3066;SDS011;1544;48.834;9.194;2022-11-04T17:24:51;5.17;;;3.43;;
3066;SDS011;1544;48.834;9.194;2022-11-04T17:27:26;3.57;;;3.27;;
3066;SDS011;1544;48.834;9.194;2022-11-04T17:30:01;4.20;;;3.57;;
3066;SDS011;1544;48.834;9.194;2022-11-04T17:32:37;3.43;;;2.63;;
3066;SDS011;1544;48.834;9.194;2022-11-04T17:35:12;2.73;;;2.43;;
3066;SDS011;1544;48.834;9.194;2022-11-04T17:37:50;3.00;;;2.70;;
3066;SDS011;1544;48.834;9.194;2022-11-04T17:40:26;2.83;;;2.57;;
3066;SDS011;1544;48.834;9.194;2022-11-04T17:43:01;4.50;;;2.00;;
3066;SDS011;1544;48.834;9.194;2022-11-04T17:45:54;2.93;;;2.50;;
3066;SDS011;1544;48.834;9.194;2022-11-04T17:48:49;2.70;;;2.40;;
3066;SDS011;1544;48.834;9.194;2022-11-04T17:51:24;3.30;;;1.70;;
3066;SDS011;1544;48.834;9.194;2022-11-04T17:54:00;2.93;;;1.83;;
3066;SDS011;1544;48.834;9.194;2022-11-04T17:56:35;4.20;;;2.30;;
3066;SDS011;1544;48.834;9.194;2022-11-04T17:59:12;3.23;;;1.80;;
3066;SDS011;1544;48.834;9.194;2022-11-04T18:01:49;3.13;;;2.00;;
3066;SDS011;1544;48.834;9.194;2022-11-04T18:04:24;2.17;;;1.97;;
3066;SDS011;1544;48.834;9.194;2022-11-04T18:06:59;3.00;;;2.20;;
3066;SDS011;1544;48.834;9.194;2022-11-04T18:09:36;2.90;;;2.30;;
3066;SDS011;1544;48.834;9.194;2022-11-04T18:12:12;3.53;;;2.20;;
3066;SDS011;1544;48.834;9.194;2022-11-04T18:15:07;4.93;;;2.80;;
3066;SDS011;1544;48.834;9.194;2022-11-04T18:17:45;3.63;;;2.90;;
3066;SDS011;1544;48.834;9.194;2022-11-04T18:20:20;3.63;;;2.53;;
3066;SDS011;1544;48.834;9.194;2022-11-04T18:22:55;4.50;;;3.40;;
3066;SDS011;1544;48.834;9.194;2022-11-04T18:25:33;2.63;;;2.40;;
3066;SDS011;1544;48.834;9.194;2022-11-04T18:28:08;2.13;;;1.93;;
3066;SDS011;1544;48.834;9.194;2022-11-04T18:30:43;3.00;;;2.27;;
3066;SDS011;1544;48.834;9.194;2022-11-04T18:33:18;4.43;;;2.63;;
3066;SDS011;1544;48.834;9.194;2022-11-04T18:35:53;4.97;;;2.57;;
3066;SDS011;1544;48.834;9.194;2022-11-04T18:38:28;3.97;;;3.57;;
3066;SDS011;1544;48.834;9.194;2022-11-04T18:41:03;3.03;;;2.83;;
3066;SDS011;1544;48.834;9.194;2022-11-04T18:43:38;6.53;;;3.60;;
3066;SDS011;1544;48.834;9.194;2022-11-04T18:46:14;4.30;;;3.90;;
3066;SDS011;1544;48.834;9.194;2022-11-04T18:48:50;4.20;;;3.80;;
3066;SDS011;1544;48.834;9.194;2022-11-04T18:51:26;5.57;;;4.67;;
3066;SDS011;1544;48.834;9.194;2022-11-04T18:54:04;5.03;;;4.53;;
3066;SDS011;1544;48.834;9.194;2022-11-04T18:56:40;6.10;;;4.97;;
3066;SDS011;1544;48.834;9.194;2022-11-04T18:59:16;6.80;;;5.93;;
3066;SDS011;1544;48.834;9.194;2022-11-04T19:01:51;7.30;;;5.20;;
3066;SDS011;1544;48.834;9.194;2022-11-04T19:04:26;5.57;;;4.57;;